<?xml version="1.0" encoding="UTF-8" standalone="no" ?>
<gpx xmlns="http://www.topografix.com/GPX/1/1" xmlns:xsi="http://www.w3.org/2001/XMLSchema-instance" xsi:schemaLocation="http://www.topografix.com/GPX/1/1 http://www.topografix.com/GPX/1/1/gpx.xsd" version="1.1" creator="VisuGPX - https://www.visugpx.com">
  <metadata>
    <name>ARQUES LA SEYNE SUR MER 1497 KM</name>
    <desc><![CDATA[Rando de Arques dans le Pas de Calais jusque La Seyne sur Mer dans le Var, 1497 km]]></desc>
  </metadata>
  <trk>
    <name><![CDATA[48 - ST VINCENT DE BARRES LE TEIL 24.4 KM]]></name>
    <extensions>
      <line xmlns="http://www.topografix.com/GPX/gpx_style/0/2">
        <color>888800</color>
        <width>4</width>
      </line>
    </extensions>
    <trkseg>
      <trkpt lat="44.66867" lon="4.6943">
        <ele>245</ele>
        <time>2021-12-02T10:09:45+01:00</time>
      </trkpt>
      <trkpt lat="44.66955" lon="4.69495">
        <ele>253</ele>
        <time>2021-12-02T10:09:50+01:00</time>
      </trkpt>
      <trkpt lat="44.66977" lon="4.69601">
        <ele>251</ele>
        <time>2021-12-02T10:09:55+01:00</time>
      </trkpt>
      <trkpt lat="44.66831" lon="4.70011">
        <ele>243</ele>
        <time>2021-12-02T10:10:00+01:00</time>
      </trkpt>
      <trkpt lat="44.66748" lon="4.70176">
        <ele>239</ele>
        <time>2021-12-02T10:10:05+01:00</time>
      </trkpt>
      <trkpt lat="44.66685" lon="4.70376">
        <ele>234</ele>
        <time>2021-12-02T10:10:10+01:00</time>
      </trkpt>
      <trkpt lat="44.66654" lon="4.70421">
        <ele>232</ele>
        <time>2021-12-02T10:10:15+01:00</time>
      </trkpt>
      <trkpt lat="44.66677" lon="4.70509">
        <ele>227</ele>
        <time>2021-12-02T10:10:20+01:00</time>
      </trkpt>
      <trkpt lat="44.6656" lon="4.70585">
        <ele>214</ele>
        <time>2021-12-02T10:10:25+01:00</time>
      </trkpt>
      <trkpt lat="44.66463" lon="4.7079">
        <ele>218</ele>
        <time>2021-12-02T10:10:30+01:00</time>
      </trkpt>
      <trkpt lat="44.65746" lon="4.70364">
        <ele>241</ele>
        <time>2021-12-02T10:10:35+01:00</time>
      </trkpt>
      <trkpt lat="44.65566" lon="4.70168">
        <ele>252</ele>
        <time>2021-12-02T10:10:40+01:00</time>
      </trkpt>
      <trkpt lat="44.65534" lon="4.7024">
        <ele>252</ele>
        <time>2021-12-02T10:10:45+01:00</time>
      </trkpt>
      <trkpt lat="44.65429" lon="4.70103">
        <ele>255</ele>
        <time>2021-12-02T10:10:50+01:00</time>
      </trkpt>
      <trkpt lat="44.65314" lon="4.70091">
        <ele>261</ele>
        <time>2021-12-02T10:10:55+01:00</time>
      </trkpt>
      <trkpt lat="44.65309" lon="4.70152">
        <ele>266</ele>
        <time>2021-12-02T10:11:00+01:00</time>
      </trkpt>
      <trkpt lat="44.65337" lon="4.70204">
        <ele>268</ele>
        <time>2021-12-02T10:11:05+01:00</time>
      </trkpt>
      <trkpt lat="44.65274" lon="4.70204">
        <ele>278</ele>
        <time>2021-12-02T10:11:10+01:00</time>
      </trkpt>
      <trkpt lat="44.65189" lon="4.70067">
        <ele>275</ele>
        <time>2021-12-02T10:11:15+01:00</time>
      </trkpt>
      <trkpt lat="44.65069" lon="4.69963">
        <ele>277</ele>
        <time>2021-12-02T10:11:20+01:00</time>
      </trkpt>
      <trkpt lat="44.64977" lon="4.69947">
        <ele>279</ele>
        <time>2021-12-02T10:11:25+01:00</time>
      </trkpt>
      <trkpt lat="44.64855" lon="4.70043">
        <ele>307</ele>
        <time>2021-12-02T10:11:30+01:00</time>
      </trkpt>
      <trkpt lat="44.64806" lon="4.70015">
        <ele>310</ele>
        <time>2021-12-02T10:11:35+01:00</time>
      </trkpt>
      <trkpt lat="44.64832" lon="4.69955">
        <ele>292</ele>
        <time>2021-12-02T10:11:40+01:00</time>
      </trkpt>
      <trkpt lat="44.64749" lon="4.69878">
        <ele>300</ele>
        <time>2021-12-02T10:11:45+01:00</time>
      </trkpt>
      <trkpt lat="44.64469" lon="4.69927">
        <ele>349</ele>
        <time>2021-12-02T10:11:50+01:00</time>
      </trkpt>
      <trkpt lat="44.64295" lon="4.69895">
        <ele>357</ele>
        <time>2021-12-02T10:11:55+01:00</time>
      </trkpt>
      <trkpt lat="44.64297" lon="4.70039">
        <ele>356</ele>
        <time>2021-12-02T10:12:00+01:00</time>
      </trkpt>
      <trkpt lat="44.6404" lon="4.70453">
        <ele>357</ele>
        <time>2021-12-02T10:12:05+01:00</time>
      </trkpt>
      <trkpt lat="44.63983" lon="4.70461">
        <ele>375</ele>
        <time>2021-12-02T10:12:10+01:00</time>
      </trkpt>
      <trkpt lat="44.63769" lon="4.70939">
        <ele>396</ele>
        <time>2021-12-02T10:12:15+01:00</time>
      </trkpt>
      <trkpt lat="44.63595" lon="4.70866">
        <ele>407</ele>
        <time>2021-12-02T10:12:20+01:00</time>
      </trkpt>
      <trkpt lat="44.635" lon="4.71111">
        <ele>397</ele>
        <time>2021-12-02T10:12:25+01:00</time>
      </trkpt>
      <trkpt lat="44.63446" lon="4.71111">
        <ele>398</ele>
        <time>2021-12-02T10:12:30+01:00</time>
      </trkpt>
      <trkpt lat="44.6338" lon="4.71392">
        <ele>360</ele>
        <time>2021-12-02T10:12:35+01:00</time>
      </trkpt>
      <trkpt lat="44.6328" lon="4.71553">
        <ele>340</ele>
        <time>2021-12-02T10:12:40+01:00</time>
      </trkpt>
      <trkpt lat="44.63174" lon="4.71694">
        <ele>317</ele>
        <time>2021-12-02T10:12:45+01:00</time>
      </trkpt>
      <trkpt lat="44.63" lon="4.71686">
        <ele>281</ele>
        <time>2021-12-02T10:12:50+01:00</time>
      </trkpt>
      <trkpt lat="44.62826" lon="4.71754">
        <ele>246</ele>
        <time>2021-12-02T10:12:55+01:00</time>
      </trkpt>
      <trkpt lat="44.62669" lon="4.71818">
        <ele>219</ele>
        <time>2021-12-02T10:13:00+01:00</time>
      </trkpt>
      <trkpt lat="44.62529" lon="4.71822">
        <ele>198</ele>
        <time>2021-12-02T10:13:05+01:00</time>
      </trkpt>
      <trkpt lat="44.6246" lon="4.71814">
        <ele>184</ele>
        <time>2021-12-02T10:13:10+01:00</time>
      </trkpt>
      <trkpt lat="44.6246" lon="4.71902">
        <ele>180</ele>
        <time>2021-12-02T10:13:15+01:00</time>
      </trkpt>
      <trkpt lat="44.62263" lon="4.72023">
        <ele>154</ele>
        <time>2021-12-02T10:13:20+01:00</time>
      </trkpt>
      <trkpt lat="44.62211" lon="4.71975">
        <ele>149</ele>
        <time>2021-12-02T10:13:25+01:00</time>
      </trkpt>
      <trkpt lat="44.62143" lon="4.72031">
        <ele>142</ele>
        <time>2021-12-02T10:13:30+01:00</time>
      </trkpt>
      <trkpt lat="44.62123" lon="4.72099">
        <ele>136</ele>
        <time>2021-12-02T10:13:35+01:00</time>
      </trkpt>
      <trkpt lat="44.61997" lon="4.72163">
        <ele>125</ele>
        <time>2021-12-02T10:13:40+01:00</time>
      </trkpt>
      <trkpt lat="44.61908" lon="4.72147">
        <ele>130</ele>
        <time>2021-12-02T10:13:45+01:00</time>
      </trkpt>
      <trkpt lat="44.61734" lon="4.72115">
        <ele>145</ele>
        <time>2021-12-02T10:13:50+01:00</time>
      </trkpt>
      <trkpt lat="44.61651" lon="4.72107">
        <ele>143</ele>
        <time>2021-12-02T10:13:55+01:00</time>
      </trkpt>
      <trkpt lat="44.61474" lon="4.72035">
        <ele>129</ele>
        <time>2021-12-02T10:14:00+01:00</time>
      </trkpt>
      <trkpt lat="44.61394" lon="4.71943">
        <ele>125</ele>
        <time>2021-12-02T10:14:05+01:00</time>
      </trkpt>
      <trkpt lat="44.61305" lon="4.71934">
        <ele>116</ele>
        <time>2021-12-02T10:14:10+01:00</time>
      </trkpt>
      <trkpt lat="44.61179" lon="4.71971">
        <ele>106</ele>
        <time>2021-12-02T10:14:15+01:00</time>
      </trkpt>
      <trkpt lat="44.61097" lon="4.72047">
        <ele>97</ele>
        <time>2021-12-02T10:14:20+01:00</time>
      </trkpt>
      <trkpt lat="44.60994" lon="4.72083">
        <ele>91</ele>
        <time>2021-12-02T10:14:25+01:00</time>
      </trkpt>
      <trkpt lat="44.6095" lon="4.72128">
        <ele>89</ele>
        <time>2021-12-02T10:14:30+01:00</time>
      </trkpt>
      <trkpt lat="44.60805" lon="4.72208">
        <ele>84</ele>
        <time>2021-12-02T10:14:35+01:00</time>
      </trkpt>
      <trkpt lat="44.60748" lon="4.72255">
        <ele>84</ele>
        <time>2021-12-02T10:14:40+01:00</time>
      </trkpt>
      <trkpt lat="44.60806" lon="4.72046">
        <ele>84</ele>
        <time>2021-12-02T10:14:45+01:00</time>
      </trkpt>
      <trkpt lat="44.60902" lon="4.71876">
        <ele>89</ele>
        <time>2021-12-02T10:14:50+01:00</time>
      </trkpt>
      <trkpt lat="44.60916" lon="4.71806">
        <ele>91</ele>
        <time>2021-12-02T10:14:55+01:00</time>
      </trkpt>
      <trkpt lat="44.60929" lon="4.71749">
        <ele>94</ele>
        <time>2021-12-02T10:15:00+01:00</time>
      </trkpt>
      <trkpt lat="44.60915" lon="4.71689">
        <ele>102</ele>
        <time>2021-12-02T10:15:05+01:00</time>
      </trkpt>
      <trkpt lat="44.60955" lon="4.71604">
        <ele>108</ele>
        <time>2021-12-02T10:15:10+01:00</time>
      </trkpt>
      <trkpt lat="44.60865" lon="4.71622">
        <ele>118</ele>
        <time>2021-12-02T10:15:15+01:00</time>
      </trkpt>
      <trkpt lat="44.60778" lon="4.71549">
        <ele>137</ele>
        <time>2021-12-02T10:15:20+01:00</time>
      </trkpt>
      <trkpt lat="44.60767" lon="4.7146">
        <ele>143</ele>
        <time>2021-12-02T10:15:25+01:00</time>
      </trkpt>
      <trkpt lat="44.60737" lon="4.71258">
        <ele>157</ele>
        <time>2021-12-02T10:15:30+01:00</time>
      </trkpt>
      <trkpt lat="44.60705" lon="4.71278">
        <ele>158</ele>
        <time>2021-12-02T10:15:35+01:00</time>
      </trkpt>
      <trkpt lat="44.60696" lon="4.71313">
        <ele>158</ele>
        <time>2021-12-02T10:15:40+01:00</time>
      </trkpt>
      <trkpt lat="44.60595" lon="4.71253">
        <ele>174</ele>
        <time>2021-12-02T10:15:45+01:00</time>
      </trkpt>
      <trkpt lat="44.60588" lon="4.71345">
        <ele>172</ele>
        <time>2021-12-02T10:15:50+01:00</time>
      </trkpt>
      <trkpt lat="44.6049" lon="4.71195">
        <ele>189</ele>
        <time>2021-12-02T10:15:55+01:00</time>
      </trkpt>
      <trkpt lat="44.60457" lon="4.70958">
        <ele>209</ele>
        <time>2021-12-02T10:16:00+01:00</time>
      </trkpt>
      <trkpt lat="44.60336" lon="4.70886">
        <ele>229</ele>
        <time>2021-12-02T10:16:05+01:00</time>
      </trkpt>
      <trkpt lat="44.60332" lon="4.70774">
        <ele>241</ele>
        <time>2021-12-02T10:16:10+01:00</time>
      </trkpt>
      <trkpt lat="44.60371" lon="4.70649">
        <ele>259</ele>
        <time>2021-12-02T10:16:15+01:00</time>
      </trkpt>
      <trkpt lat="44.60379" lon="4.70475">
        <ele>276</ele>
        <time>2021-12-02T10:16:20+01:00</time>
      </trkpt>
      <trkpt lat="44.60327" lon="4.7035">
        <ele>283</ele>
        <time>2021-12-02T10:16:25+01:00</time>
      </trkpt>
      <trkpt lat="44.60265" lon="4.70318">
        <ele>285</ele>
        <time>2021-12-02T10:16:30+01:00</time>
      </trkpt>
      <trkpt lat="44.60274" lon="4.7025">
        <ele>287</ele>
        <time>2021-12-02T10:16:35+01:00</time>
      </trkpt>
      <trkpt lat="44.60134" lon="4.70156">
        <ele>286</ele>
        <time>2021-12-02T10:16:40+01:00</time>
      </trkpt>
      <trkpt lat="44.59983" lon="4.69974">
        <ele>297</ele>
        <time>2021-12-02T10:16:45+01:00</time>
      </trkpt>
      <trkpt lat="44.59908" lon="4.69856">
        <ele>293</ele>
        <time>2021-12-02T10:16:50+01:00</time>
      </trkpt>
      <trkpt lat="44.5997" lon="4.69664">
        <ele>299</ele>
        <time>2021-12-02T10:16:55+01:00</time>
      </trkpt>
      <trkpt lat="44.59984" lon="4.6957">
        <ele>299</ele>
        <time>2021-12-02T10:17:00+01:00</time>
      </trkpt>
      <trkpt lat="44.59924" lon="4.69577">
        <ele>296</ele>
        <time>2021-12-02T10:17:05+01:00</time>
      </trkpt>
      <trkpt lat="44.59841" lon="4.69557">
        <ele>297</ele>
        <time>2021-12-02T10:17:10+01:00</time>
      </trkpt>
      <trkpt lat="44.59672" lon="4.6939">
        <ele>294</ele>
        <time>2021-12-02T10:17:15+01:00</time>
      </trkpt>
      <trkpt lat="44.59683" lon="4.69298">
        <ele>304</ele>
        <time>2021-12-02T10:17:20+01:00</time>
      </trkpt>
      <trkpt lat="44.59668" lon="4.69188">
        <ele>313</ele>
        <time>2021-12-02T10:17:25+01:00</time>
      </trkpt>
      <trkpt lat="44.59711" lon="4.69146">
        <ele>322</ele>
        <time>2021-12-02T10:17:30+01:00</time>
      </trkpt>
      <trkpt lat="44.59647" lon="4.69016">
        <ele>343</ele>
        <time>2021-12-02T10:17:35+01:00</time>
      </trkpt>
      <trkpt lat="44.59544" lon="4.69011">
        <ele>340</ele>
        <time>2021-12-02T10:17:40+01:00</time>
      </trkpt>
      <trkpt lat="44.59526" lon="4.68944">
        <ele>342</ele>
        <time>2021-12-02T10:17:45+01:00</time>
      </trkpt>
      <trkpt lat="44.59477" lon="4.68891">
        <ele>338</ele>
        <time>2021-12-02T10:17:50+01:00</time>
      </trkpt>
      <trkpt lat="44.59485" lon="4.68839">
        <ele>345</ele>
        <time>2021-12-02T10:17:55+01:00</time>
      </trkpt>
      <trkpt lat="44.59434" lon="4.68714">
        <ele>353</ele>
        <time>2021-12-02T10:18:00+01:00</time>
      </trkpt>
      <trkpt lat="44.59434" lon="4.6858">
        <ele>361</ele>
        <time>2021-12-02T10:18:05+01:00</time>
      </trkpt>
      <trkpt lat="44.5934" lon="4.68467">
        <ele>343</ele>
        <time>2021-12-02T10:18:10+01:00</time>
      </trkpt>
      <trkpt lat="44.5934" lon="4.6842">
        <ele>346</ele>
        <time>2021-12-02T10:18:15+01:00</time>
      </trkpt>
      <trkpt lat="44.59466" lon="4.68298">
        <ele>371</ele>
        <time>2021-12-02T10:18:20+01:00</time>
      </trkpt>
      <trkpt lat="44.59434" lon="4.68255">
        <ele>359</ele>
        <time>2021-12-02T10:18:25+01:00</time>
      </trkpt>
      <trkpt lat="44.59445" lon="4.68156">
        <ele>360</ele>
        <time>2021-12-02T10:18:30+01:00</time>
      </trkpt>
      <trkpt lat="44.59478" lon="4.68098">
        <ele>363</ele>
        <time>2021-12-02T10:18:35+01:00</time>
      </trkpt>
      <trkpt lat="44.59528" lon="4.68113">
        <ele>376</ele>
        <time>2021-12-02T10:18:40+01:00</time>
      </trkpt>
      <trkpt lat="44.5958" lon="4.68053">
        <ele>380</ele>
        <time>2021-12-02T10:18:45+01:00</time>
      </trkpt>
      <trkpt lat="44.59596" lon="4.67966">
        <ele>375</ele>
        <time>2021-12-02T10:18:50+01:00</time>
      </trkpt>
      <trkpt lat="44.59638" lon="4.67959">
        <ele>388</ele>
        <time>2021-12-02T10:18:55+01:00</time>
      </trkpt>
      <trkpt lat="44.59601" lon="4.67864">
        <ele>370</ele>
        <time>2021-12-02T10:19:00+01:00</time>
      </trkpt>
      <trkpt lat="44.59649" lon="4.67764">
        <ele>379</ele>
        <time>2021-12-02T10:19:05+01:00</time>
      </trkpt>
      <trkpt lat="44.59619" lon="4.67729">
        <ele>370</ele>
        <time>2021-12-02T10:19:10+01:00</time>
      </trkpt>
      <trkpt lat="44.59606" lon="4.67607">
        <ele>371</ele>
        <time>2021-12-02T10:19:15+01:00</time>
      </trkpt>
      <trkpt lat="44.59544" lon="4.67497">
        <ele>374</ele>
        <time>2021-12-02T10:19:20+01:00</time>
      </trkpt>
      <trkpt lat="44.59462" lon="4.67445">
        <ele>371</ele>
        <time>2021-12-02T10:19:25+01:00</time>
      </trkpt>
      <trkpt lat="44.59443" lon="4.67475">
        <ele>361</ele>
        <time>2021-12-02T10:19:30+01:00</time>
      </trkpt>
      <trkpt lat="44.59297" lon="4.67318">
        <ele>364</ele>
        <time>2021-12-02T10:19:35+01:00</time>
      </trkpt>
      <trkpt lat="44.59267" lon="4.67236">
        <ele>355</ele>
        <time>2021-12-02T10:19:40+01:00</time>
      </trkpt>
      <trkpt lat="44.59352" lon="4.66917">
        <ele>353</ele>
        <time>2021-12-02T10:19:45+01:00</time>
      </trkpt>
      <trkpt lat="44.5934" lon="4.66831">
        <ele>343</ele>
        <time>2021-12-02T10:19:50+01:00</time>
      </trkpt>
      <trkpt lat="44.59352" lon="4.66761">
        <ele>350</ele>
        <time>2021-12-02T10:19:55+01:00</time>
      </trkpt>
      <trkpt lat="44.59338" lon="4.66659">
        <ele>346</ele>
        <time>2021-12-02T10:20:00+01:00</time>
      </trkpt>
      <trkpt lat="44.59361" lon="4.66563">
        <ele>362</ele>
        <time>2021-12-02T10:20:05+01:00</time>
      </trkpt>
      <trkpt lat="44.59288" lon="4.66624">
        <ele>354</ele>
        <time>2021-12-02T10:20:10+01:00</time>
      </trkpt>
      <trkpt lat="44.59216" lon="4.66735">
        <ele>342</ele>
        <time>2021-12-02T10:20:15+01:00</time>
      </trkpt>
      <trkpt lat="44.59159" lon="4.66713">
        <ele>361</ele>
        <time>2021-12-02T10:20:20+01:00</time>
      </trkpt>
      <trkpt lat="44.59132" lon="4.66751">
        <ele>358</ele>
        <time>2021-12-02T10:20:25+01:00</time>
      </trkpt>
      <trkpt lat="44.59123" lon="4.66697">
        <ele>372</ele>
        <time>2021-12-02T10:20:30+01:00</time>
      </trkpt>
      <trkpt lat="44.59182" lon="4.66576">
        <ele>388</ele>
        <time>2021-12-02T10:20:35+01:00</time>
      </trkpt>
      <trkpt lat="44.59046" lon="4.66592">
        <ele>414</ele>
        <time>2021-12-02T10:20:40+01:00</time>
      </trkpt>
      <trkpt lat="44.5908" lon="4.66538">
        <ele>420</ele>
        <time>2021-12-02T10:20:45+01:00</time>
      </trkpt>
      <trkpt lat="44.59021" lon="4.66538">
        <ele>431</ele>
        <time>2021-12-02T10:20:50+01:00</time>
      </trkpt>
      <trkpt lat="44.59062" lon="4.66439">
        <ele>449</ele>
        <time>2021-12-02T10:20:55+01:00</time>
      </trkpt>
      <trkpt lat="44.58898" lon="4.66547">
        <ele>449</ele>
        <time>2021-12-02T10:21:00+01:00</time>
      </trkpt>
      <trkpt lat="44.58844" lon="4.66436">
        <ele>460</ele>
        <time>2021-12-02T10:21:05+01:00</time>
      </trkpt>
      <trkpt lat="44.58801" lon="4.66337">
        <ele>461</ele>
        <time>2021-12-02T10:21:10+01:00</time>
      </trkpt>
      <trkpt lat="44.58543" lon="4.6607">
        <ele>450</ele>
        <time>2021-12-02T10:21:15+01:00</time>
      </trkpt>
      <trkpt lat="44.58298" lon="4.66121">
        <ele>428</ele>
        <time>2021-12-02T10:21:20+01:00</time>
      </trkpt>
      <trkpt lat="44.58083" lon="4.66124">
        <ele>425</ele>
        <time>2021-12-02T10:21:25+01:00</time>
      </trkpt>
      <trkpt lat="44.58005" lon="4.66185">
        <ele>430</ele>
        <time>2021-12-02T10:21:30+01:00</time>
      </trkpt>
      <trkpt lat="44.57881" lon="4.66201">
        <ele>434</ele>
        <time>2021-12-02T10:21:35+01:00</time>
      </trkpt>
      <trkpt lat="44.57835" lon="4.66258">
        <ele>425</ele>
        <time>2021-12-02T10:21:40+01:00</time>
      </trkpt>
      <trkpt lat="44.57722" lon="4.6628">
        <ele>407</ele>
        <time>2021-12-02T10:21:45+01:00</time>
      </trkpt>
      <trkpt lat="44.57654" lon="4.66213">
        <ele>402</ele>
        <time>2021-12-02T10:21:50+01:00</time>
      </trkpt>
      <trkpt lat="44.57473" lon="4.66252">
        <ele>405</ele>
        <time>2021-12-02T10:21:55+01:00</time>
      </trkpt>
      <trkpt lat="44.57307" lon="4.66207">
        <ele>397</ele>
        <time>2021-12-02T10:22:00+01:00</time>
      </trkpt>
      <trkpt lat="44.57103" lon="4.66112">
        <ele>394</ele>
        <time>2021-12-02T10:22:05+01:00</time>
      </trkpt>
      <trkpt lat="44.56999" lon="4.66137">
        <ele>400</ele>
        <time>2021-12-02T10:22:10+01:00</time>
      </trkpt>
      <trkpt lat="44.56809" lon="4.66264">
        <ele>385</ele>
        <time>2021-12-02T10:22:15+01:00</time>
      </trkpt>
      <trkpt lat="44.56636" lon="4.66258">
        <ele>375</ele>
        <time>2021-12-02T10:22:20+01:00</time>
      </trkpt>
      <trkpt lat="44.56725" lon="4.66407">
        <ele>361</ele>
        <time>2021-12-02T10:22:25+01:00</time>
      </trkpt>
      <trkpt lat="44.56722" lon="4.66484">
        <ele>347</ele>
        <time>2021-12-02T10:22:30+01:00</time>
      </trkpt>
      <trkpt lat="44.56598" lon="4.66563">
        <ele>336</ele>
        <time>2021-12-02T10:22:35+01:00</time>
      </trkpt>
      <trkpt lat="44.56478" lon="4.66703">
        <ele>322</ele>
        <time>2021-12-02T10:22:40+01:00</time>
      </trkpt>
      <trkpt lat="44.56389" lon="4.66783">
        <ele>296</ele>
        <time>2021-12-02T10:22:45+01:00</time>
      </trkpt>
      <trkpt lat="44.56353" lon="4.6678">
        <ele>287</ele>
        <time>2021-12-02T10:22:50+01:00</time>
      </trkpt>
      <trkpt lat="44.56244" lon="4.6691">
        <ele>258</ele>
        <time>2021-12-02T10:22:55+01:00</time>
      </trkpt>
      <trkpt lat="44.56138" lon="4.6698">
        <ele>246</ele>
        <time>2021-12-02T10:23:00+01:00</time>
      </trkpt>
      <trkpt lat="44.55967" lon="4.66999">
        <ele>231</ele>
        <time>2021-12-02T10:23:05+01:00</time>
      </trkpt>
      <trkpt lat="44.55958" lon="4.6706">
        <ele>226</ele>
        <time>2021-12-02T10:23:10+01:00</time>
      </trkpt>
      <trkpt lat="44.5599" lon="4.67111">
        <ele>223</ele>
        <time>2021-12-02T10:23:15+01:00</time>
      </trkpt>
      <trkpt lat="44.55897" lon="4.67225">
        <ele>212</ele>
        <time>2021-12-02T10:23:20+01:00</time>
      </trkpt>
      <trkpt lat="44.55838" lon="4.6734">
        <ele>208</ele>
        <time>2021-12-02T10:23:25+01:00</time>
      </trkpt>
      <trkpt lat="44.55623" lon="4.67372">
        <ele>207</ele>
        <time>2021-12-02T10:23:30+01:00</time>
      </trkpt>
      <trkpt lat="44.55448" lon="4.6762">
        <ele>203</ele>
        <time>2021-12-02T10:23:35+01:00</time>
      </trkpt>
      <trkpt lat="44.55359" lon="4.67742">
        <ele>203</ele>
        <time>2021-12-02T10:23:40+01:00</time>
      </trkpt>
      <trkpt lat="44.55359" lon="4.67858">
        <ele>204</ele>
        <time>2021-12-02T10:23:45+01:00</time>
      </trkpt>
      <trkpt lat="44.55392" lon="4.68021">
        <ele>203</ele>
        <time>2021-12-02T10:23:50+01:00</time>
      </trkpt>
      <trkpt lat="44.55376" lon="4.68103">
        <ele>189</ele>
        <time>2021-12-02T10:23:55+01:00</time>
      </trkpt>
      <trkpt lat="44.5537" lon="4.6815">
        <ele>178</ele>
        <time>2021-12-02T10:24:00+01:00</time>
      </trkpt>
      <trkpt lat="44.55518" lon="4.68311">
        <ele>176</ele>
        <time>2021-12-02T10:24:05+01:00</time>
      </trkpt>
      <trkpt lat="44.55503" lon="4.68394">
        <ele>150</ele>
        <time>2021-12-02T10:24:10+01:00</time>
      </trkpt>
      <trkpt lat="44.55477" lon="4.68399">
        <ele>139</ele>
        <time>2021-12-02T10:24:15+01:00</time>
      </trkpt>
      <trkpt lat="44.55473" lon="4.68349">
        <ele>147</ele>
        <time>2021-12-02T10:24:20+01:00</time>
      </trkpt>
      <trkpt lat="44.55419" lon="4.6833">
        <ele>132</ele>
        <time>2021-12-02T10:24:25+01:00</time>
      </trkpt>
      <trkpt lat="44.55333" lon="4.68326">
        <ele>111</ele>
        <time>2021-12-02T10:24:30+01:00</time>
      </trkpt>
      <trkpt lat="44.55225" lon="4.68244">
        <ele>100</ele>
        <time>2021-12-02T10:24:35+01:00</time>
      </trkpt>
      <trkpt lat="44.5519" lon="4.68188">
        <ele>101</ele>
        <time>2021-12-02T10:24:40+01:00</time>
      </trkpt>
      <trkpt lat="44.55159" lon="4.68216">
        <ele>90</ele>
        <time>2021-12-02T10:24:45+01:00</time>
      </trkpt>
      <trkpt lat="44.55037" lon="4.68188">
        <ele>81</ele>
        <time>2021-12-02T10:24:50+01:00</time>
      </trkpt>
      <trkpt lat="44.54992" lon="4.6824">
        <ele>75</ele>
        <time>2021-12-02T10:24:55+01:00</time>
      </trkpt>
      <trkpt lat="44.54919" lon="4.68186">
        <ele>75</ele>
        <time>2021-12-02T10:25:00+01:00</time>
      </trkpt>
      <trkpt lat="44.54624" lon="4.68088">
        <ele>75</ele>
        <time>2021-12-02T10:25:05+01:00</time>
      </trkpt>
      <trkpt lat="44.54531" lon="4.68098">
        <ele>75</ele>
        <time>2021-12-02T10:25:10+01:00</time>
      </trkpt>
      <trkpt lat="44.5413" lon="4.68377">
        <ele>83</ele>
        <time>2021-12-02T10:25:15+01:00</time>
      </trkpt>
      <trkpt lat="44.54086" lon="4.68448">
        <ele>83</ele>
        <time>2021-12-02T10:25:20+01:00</time>
      </trkpt>
      <trkpt lat="44.54153" lon="4.68409">
        <ele>79</ele>
        <time>2021-12-02T10:25:25+01:00</time>
      </trkpt>
      <trkpt lat="44.5417" lon="4.68437">
        <ele>76</ele>
        <time>2021-12-02T10:25:30+01:00</time>
      </trkpt>
    </trkseg>
  </trk>
</gpx>